Okadama Airport
RJCO : now visible

Airfield :











YOU CAN JOIN US ON...

 
LOGIN :

Register | Disclaimer

   EN    FR    IT 

 









Legend :    VFR   Marginal VFR   IFR   Intensive IFR   Very Intensive IFR
Visi :
Ceiling :
>= 8 km
>= 3000ft
5 to 8 km
1000 to 3000 ft
1500m to 5 km
500 to 1000 ft
800 to 1500m
200 to 500 ft
< 800m
< 200 ft
Symbols :   Thunderstorms  Fog  Heavy snow  Heavy precipitations  Wind > 20 kt






- Airport Elevation : 25 ft
- IATA code : OKD


RJCO - Okadama

CURRENT METAR :
  • 290400Z 30017G27KT 9999 -SHRA FEW010 BKN015 BKN025 11/08 Q1008

EXPIRED METARs :
  • 290312Z 31015KT 9999 -SHRA FEW010 BKN015 BKN025 10/08 Q1007 RMK 1ST010 5ST015 7CU025 A2976
  • 290300Z 30017G28KT 9999 FEW010 BKN015 BKN025 11/08 Q1007
  • 290200Z 30013KT 9999 FEW010 BKN013 BKN025 11/08 Q1007
  • 290121Z 31013KT 9999 -SHRA FEW008 BKN010 BKN025 10/08 Q1006 RMK 1ST008 5ST010 7CU025 A2973
  • 290100Z 32014KT 9999 FEW010 BKN015 BKN025 12/09 Q1006
  • 290000Z 33010KT 9999 -SHRA FEW010 BKN015 BKN030 11/09 Q1006
  • 282337Z 32010KT 9999 -SHRA FEW008 BKN012 BKN025 10/09 Q1006 RMK 1ST008 5ST012 7CU025 A2971

TAF N/A
RJJJ FIR / Asia



MET'MAP, your aeronautical weather chart ! - Copyright ORBIFLY December 2007 - Disclaimer

ORBIFLY MET'MAP TEAM :

Programming & Development : Alexandra Zaïnal
Original concept : Baudouin d'Aumeries
Technical & hardware support : Manuel Goepfert
Assistance : Marc-Olivier Méhu




SOURCES & CREDITS :

   NOAA       Earth
Advisory